Time;durP1;ratioP1;P1;durP2;ratioP2;P2;SDS_P1;SDS_P2;PMS_P1;PMS_P2;Temp;Humidity;BMP_temperature;BMP_pressure;BME280_temperature;BME280_humidity;BME280_pressure;Samples;Min_cycle;Max_cycle;Signal;HPM_P1;HPM_P2
2023/07/24 00:01:35;;;;;;;9.88;6.57;;;;;;;;;;5054341;28;20052;-77
2023/07/24 00:04:01;;;;;;;8.35;6.32;;;;;;;;;;5054909;28;20045;-77
2023/07/24 00:06:27;;;;;;;10.02;7.50;;;;;;;;;;5056018;28;20119;-78
2023/07/24 00:08:54;;;;;;;11.27;7.13;;;;;;;;;;5037923;28;20175;-78
2023/07/24 00:11:20;;;;;;;9.77;6.95;;;;;;;;;;5055595;28;20052;-78
2023/07/24 00:13:46;;;;;;;9.48;6.82;;;;;;;;;;5055983;28;20056;-77
2023/07/24 00:16:12;;;;;;;9.50;6.60;;;;;;;;;;5055238;28;20053;-78
2023/07/24 00:18:38;;;;;;;9.77;7.15;;;;;;;;;;5054019;28;20048;-77
2023/07/24 00:21:04;;;;;;;9.45;6.80;;;;;;;;;;5056184;28;20041;-78
2023/07/24 00:23:30;;;;;;;11.00;8.07;;;;;;;;;;5055761;28;20063;-78
2023/07/24 00:25:56;;;;;;;10.43;8.80;;;;;;;;;;5055604;28;20041;-78
2023/07/24 00:28:22;;;;;;;11.85;8.60;;;;;;;;;;5055275;28;20053;-77
2023/07/24 00:30:48;;;;;;;11.93;8.77;;;;;;;;;;5055418;28;20049;-78
2023/07/24 00:33:14;;;;;;;10.48;9.38;;;;;;;;;;5052988;28;20128;-78
2023/07/24 00:35:40;;;;;;;12.75;9.77;;;;;;;;;;5037913;28;20407;-78
2023/07/24 00:38:06;;;;;;;12.18;9.20;;;;;;;;;;5055481;28;20048;-78
2023/07/24 00:40:32;;;;;;;11.95;10.07;;;;;;;;;;5054572;28;20056;-78
2023/07/24 00:42:59;;;;;;;10.65;8.93;;;;;;;;;;5036996;28;20052;-77
2023/07/24 00:45:25;;;;;;;11.98;10.45;;;;;;;;;;5037155;28;20568;-78
2023/07/24 00:47:51;;;;;;;13.15;10.10;;;;;;;;;;5053570;28;20084;-78
2023/07/24 00:50:18;;;;;;;13.23;10.80;;;;;;;;;;5056536;28;20056;-79
2023/07/24 00:52:44;;;;;;;12.63;10.48;;;;;;;;;;5059583;28;20045;-78
2023/07/24 00:55:11;;;;;;;13.02;11.45;;;;;;;;;;5057888;28;20053;-79
2023/07/24 00:57:37;;;;;;;11.98;9.43;;;;;;;;;;5056975;28;20406;-78
2023/07/24 01:00:03;;;;;;;13.80;10.80;;;;;;;;;;5054895;28;20044;-77
2023/07/24 01:02:30;;;;;;;13.38;10.27;;;;;;;;;;5053341;28;20045;-80
2023/07/24 01:04:56;;;;;;;13.63;11.40;;;;;;;;;;5036388;28;20153;-78
2023/07/24 01:07:22;;;;;;;12.82;11.18;;;;;;;;;;5054109;28;20101;-79
2023/07/24 01:09:50;;;;;;;13.90;12.00;;;;;;;;;;5055298;28;20053;-78
2023/07/24 01:12:23;;;;;;;13.60;11.55;;;;;;;;;;5053861;28;20048;-78
2023/07/24 01:15:18;;;;;;;16.52;12.15;;;;;;;;;;5052832;28;20068;-78
2023/07/24 01:17:46;;;;;;;13.00;11.63;;;;;;;;;;5024373;28;20135;-78
2023/07/24 01:20:14;;;;;;;12.68;11.38;;;;;;;;;;5035489;28;20038;-79
2023/07/24 01:22:48;;;;;;;14.35;11.55;;;;;;;;;;5034859;28;20041;-78
2023/07/24 01:25:40;;;;;;;14.95;11.68;;;;;;;;;;5035013;28;20380;-78
2023/07/24 01:28:08;;;;;;;13.40;10.95;;;;;;;;;;5047576;28;20068;-79
2023/07/24 01:30:34;;;;;;;13.43;11.70;;;;;;;;;;5053590;28;20598;-78
2023/07/24 01:33:01;;;;;;;13.57;11.63;;;;;;;;;;5049445;28;20052;-78
2023/07/24 01:35:27;;;;;;;14.95;12.55;;;;;;;;;;5051907;28;20513;-78
2023/07/24 01:37:54;;;;;;;15.48;12.15;;;;;;;;;;5053226;28;20044;-77
2023/07/24 01:40:21;;;;;;;12.82;10.90;;;;;;;;;;5053458;28;20056;-78
2023/07/24 01:42:49;;;;;;;12.38;11.07;;;;;;;;;;5053904;28;20041;-78
2023/07/24 01:45:15;;;;;;;14.95;11.10;;;;;;;;;;5051643;28;20412;-78
2023/07/24 01:47:41;;;;;;;13.52;11.27;;;;;;;;;;5053822;28;20058;-78
2023/07/24 01:50:08;;;;;;;14.07;11.60;;;;;;;;;;5053699;28;20045;-79
2023/07/24 01:52:34;;;;;;;11.73;10.27;;;;;;;;;;5057144;28;20045;-79
2023/07/24 01:55:00;;;;;;;14.02;11.10;;;;;;;;;;5056046;28;20048;-79
2023/07/24 01:57:26;;;;;;;13.35;11.95;;;;;;;;;;5056995;28;20063;-79
2023/07/24 01:59:52;;;;;;;13.98;11.15;;;;;;;;;;5057047;28;20133;-78
2023/07/24 02:02:18;;;;;;;12.20;10.45;;;;;;;;;;5056133;28;20056;-79
2023/07/24 02:04:46;;;;;;;14.80;11.00;;;;;;;;;;5053244;28;20044;-79
2023/07/24 02:07:12;;;;;;;14.48;10.90;;;;;;;;;;5057117;28;20080;-78
2023/07/24 02:09:38;;;;;;;14.13;10.90;;;;;;;;;;5057149;28;20422;-79
2023/07/24 02:12:05;;;;;;;11.60;10.13;;;;;;;;;;5055729;28;20049;-78
2023/07/24 02:14:31;;;;;;;13.27;10.82;;;;;;;;;;5043026;28;20442;-79
2023/07/24 02:16:57;;;;;;;12.30;10.32;;;;;;;;;;5062734;28;20045;-79
2023/07/24 02:19:23;;;;;;;13.25;9.80;;;;;;;;;;5060666;28;20474;-80
2023/07/24 02:21:49;;;;;;;11.75;9.98;;;;;;;;;;5060942;28;20047;-79
2023/07/24 02:24:15;;;;;;;11.82;9.15;;;;;;;;;;5045852;28;20045;-79
2023/07/24 02:26:41;;;;;;;14.18;10.02;;;;;;;;;;5063086;28;20172;-79
2023/07/24 02:29:07;;;;;;;12.95;8.77;;;;;;;;;;5042907;28;20052;-77
2023/07/24 02:31:34;;;;;;;13.13;9.13;;;;;;;;;;5056573;28;20044;-77
2023/07/24 02:34:00;;;;;;;12.55;9.52;;;;;;;;;;5054080;28;20048;-77
2023/07/24 02:36:26;;;;;;;11.25;9.48;;;;;;;;;;5038073;28;20045;-77
2023/07/24 02:38:52;;;;;;;12.50;9.52;;;;;;;;;;5055954;28;20483;-77
2023/07/24 02:41:18;;;;;;;11.55;9.50;;;;;;;;;;5056057;28;20041;-78
2023/07/24 02:43:44;;;;;;;15.27;10.18;;;;;;;;;;5055958;28;20580;-78
2023/07/24 02:46:11;;;;;;;11.57;8.43;;;;;;;;;;5056006;28;20076;-77
2023/07/24 02:48:37;;;;;;;12.25;9.00;;;;;;;;;;5054773;28;20044;-78
2023/07/24 02:51:03;;;;;;;13.50;9.70;;;;;;;;;;5055748;28;20052;-78
2023/07/24 02:53:29;;;;;;;13.77;9.07;;;;;;;;;;5037398;28;20045;-77
2023/07/24 02:55:55;;;;;;;13.68;9.23;;;;;;;;;;5055270;28;20100;-78
2023/07/24 02:58:22;;;;;;;12.63;8.75;;;;;;;;;;5055066;28;20049;-78
2023/07/24 03:00:48;;;;;;;11.57;9.15;;;;;;;;;;5054883;28;20517;-78
2023/07/24 03:03:14;;;;;;;12.60;9.88;;;;;;;;;;5034914;28;20033;-78
2023/07/24 03:05:40;;;;;;;14.20;9.27;;;;;;;;;;5052930;28;20606;-78
2023/07/24 03:08:06;;;;;;;13.52;9.40;;;;;;;;;;5040183;28;20381;-78
2023/07/24 03:10:32;;;;;;;12.13;8.95;;;;;;;;;;5034748;28;20096;-78
2023/07/24 03:12:58;;;;;;;11.80;9.43;;;;;;;;;;5038908;28;20050;-79
2023/07/24 03:15:24;;;;;;;11.63;9.45;;;;;;;;;;5035520;28;20045;-78
2023/07/24 03:17:50;;;;;;;13.93;9.07;;;;;;;;;;5046513;28;20570;-78
2023/07/24 03:20:17;;;;;;;13.88;9.60;;;;;;;;;;5053390;28;20099;-78
2023/07/24 03:22:44;;;;;;;13.48;10.43;;;;;;;;;;5054174;28;20049;-78
2023/07/24 03:25:10;;;;;;;12.27;9.60;;;;;;;;;;5052718;28;20057;-78
2023/07/24 03:27:36;;;;;;;13.05;9.45;;;;;;;;;;5053196;28;20044;-78
2023/07/24 03:30:03;;;;;;;12.07;9.85;;;;;;;;;;5054093;28;20041;-78
2023/07/24 03:32:29;;;;;;;11.60;9.98;;;;;;;;;;5053632;28;20056;-78
2023/07/24 03:34:55;;;;;;;11.90;9.10;;;;;;;;;;5035243;28;20124;-77
2023/07/24 03:37:21;;;;;;;11.75;9.55;;;;;;;;;;5033520;28;20444;-78
2023/07/24 03:39:47;;;;;;;12.55;9.73;;;;;;;;;;5049971;28;20171;-78
2023/07/24 03:42:25;;;;;;;12.77;9.40;;;;;;;;;;5050837;28;20526;-78
2023/07/24 03:44:51;;;;;;;12.30;9.38;;;;;;;;;;5054022;28;20140;-78
2023/07/24 03:47:17;;;;;;;12.23;9.32;;;;;;;;;;5036277;28;20037;-78
2023/07/24 03:49:43;;;;;;;12.00;9.13;;;;;;;;;;5038767;28;20043;-79
2023/07/24 03:52:09;;;;;;;12.43;8.93;;;;;;;;;;5021588;28;20047;-78
2023/07/24 03:54:35;;;;;;;10.35;8.02;;;;;;;;;;5055470;28;20080;-78
2023/07/24 03:57:01;;;;;;;14.13;9.60;;;;;;;;;;5038340;28;20459;-76
2023/07/24 03:59:27;;;;;;;11.43;9.25;;;;;;;;;;5038345;28;20041;-79
2023/07/24 04:01:53;;;;;;;12.90;9.13;;;;;;;;;;5057027;28;20032;-78
2023/07/24 04:04:19;;;;;;;13.30;10.40;;;;;;;;;;5056980;28;20045;-78
2023/07/24 04:06:46;;;;;;;12.73;9.50;;;;;;;;;;5056370;28;20051;-78
2023/07/24 04:09:14;;;;;;;11.50;9.88;;;;;;;;;;5038116;28;20099;-78
2023/07/24 04:11:40;;;;;;;12.88;9.63;;;;;;;;;;5037095;28;20045;-79
2023/07/24 04:14:06;;;;;;;13.45;9.88;;;;;;;;;;5050382;28;20053;-77
2023/07/24 04:16:32;;;;;;;11.55;8.93;;;;;;;;;;5054834;28;20041;-78
2023/07/24 04:18:58;;;;;;;11.35;9.25;;;;;;;;;;5055123;28;20524;-78
2023/07/24 04:21:24;;;;;;;12.38;9.77;;;;;;;;;;5037620;28;20140;-78
2023/07/24 04:23:50;;;;;;;12.30;10.02;;;;;;;;;;5055367;28;20053;-79
2023/07/24 04:26:16;;;;;;;14.48;10.52;;;;;;;;;;5054149;28;20453;-78
2023/07/24 04:28:42;;;;;;;13.13;10.40;;;;;;;;;;5053130;28;20461;-78
2023/07/24 04:31:09;;;;;;;11.57;10.13;;;;;;;;;;5053391;28;20414;-78
2023/07/24 04:33:35;;;;;;;13.50;10.73;;;;;;;;;;5053109;28;20045;-78
2023/07/24 04:36:01;;;;;;;10.95;9.27;;;;;;;;;;5052407;28;20475;-78
2023/07/24 04:38:27;;;;;;;13.63;10.68;;;;;;;;;;5050715;28;20045;-78
2023/07/24 04:40:53;;;;;;;12.60;11.30;;;;;;;;;;5052602;28;20041;-78
2023/07/24 04:43:19;;;;;;;12.88;10.90;;;;;;;;;;5053023;28;20512;-78
2023/07/24 04:45:45;;;;;;;15.13;10.95;;;;;;;;;;5052619;28;20143;-78
2023/07/24 04:48:11;;;;;;;12.77;9.27;;;;;;;;;;5054189;28;20120;-78
2023/07/24 04:50:37;;;;;;;11.55;10.35;;;;;;;;;;5054739;28;20045;-78
2023/07/24 04:53:03;;;;;;;12.35;10.75;;;;;;;;;;5054063;28;20063;-78
2023/07/24 04:55:29;;;;;;;12.75;10.38;;;;;;;;;;5019309;28;20051;-78
2023/07/24 04:57:55;;;;;;;12.63;11.18;;;;;;;;;;5035503;28;20147;-78
2023/07/24 05:00:21;;;;;;;14.85;11.82;;;;;;;;;;5054477;28;20540;-78
2023/07/24 05:02:47;;;;;;;13.43;11.45;;;;;;;;;;5053912;28;20113;-78
2023/07/24 05:05:13;;;;;;;14.82;11.75;;;;;;;;;;5053661;28;20086;-78
2023/07/24 05:07:39;;;;;;;12.10;10.82;;;;;;;;;;5035721;28;20077;-78
2023/07/24 05:10:06;;;;;;;11.68;10.48;;;;;;;;;;5053384;28;20560;-79
2023/07/24 05:12:32;;;;;;;12.68;11.38;;;;;;;;;;5053439;28;20510;-78
2023/07/24 05:14:58;;;;;;;16.42;11.75;;;;;;;;;;5052823;28;20052;-77
2023/07/24 05:17:24;;;;;;;14.18;11.68;;;;;;;;;;5053201;28;20124;-77
2023/07/24 05:19:50;;;;;;;12.50;10.73;;;;;;;;;;5054054;28;20076;-78
2023/07/24 05:22:16;;;;;;;12.68;11.20;;;;;;;;;;5053526;28;20095;-78
2023/07/24 05:24:42;;;;;;;15.18;12.10;;;;;;;;;;5052920;28;20053;-78
2023/07/24 05:27:08;;;;;;;13.02;11.73;;;;;;;;;;5056562;28;20049;-77
2023/07/24 05:29:34;;;;;;;13.57;11.02;;;;;;;;;;5056010;28;20094;-78
2023/07/24 05:32:00;;;;;;;12.70;10.18;;;;;;;;;;5054041;28;20128;-77
2023/07/24 05:34:26;;;;;;;11.63;10.43;;;;;;;;;;5044608;28;20049;-78
2023/07/24 05:36:52;;;;;;;14.88;11.32;;;;;;;;;;5039277;28;20041;-78
2023/07/24 05:39:18;;;;;;;11.95;10.73;;;;;;;;;;5055017;28;20041;-79
2023/07/24 05:41:44;;;;;;;14.15;12.15;;;;;;;;;;5057544;28;20041;-78
2023/07/24 05:44:10;;;;;;;13.48;11.32;;;;;;;;;;5039099;28;20057;-78
2023/07/24 05:46:36;;;;;;;12.95;11.55;;;;;;;;;;5055965;28;20045;-78
2023/07/24 05:49:02;;;;;;;15.02;11.57;;;;;;;;;;5056365;28;20049;-78
2023/07/24 05:51:28;;;;;;;15.13;12.35;;;;;;;;;;5039556;28;20136;-77
2023/07/24 05:53:54;;;;;;;12.18;10.88;;;;;;;;;;5056161;28;20475;-79
2023/07/24 05:56:20;;;;;;;13.55;12.15;;;;;;;;;;5055789;28;20103;-78
2023/07/24 05:58:46;;;;;;;13.10;11.80;;;;;;;;;;5056046;28;20052;-78
2023/07/24 06:01:12;;;;;;;15.18;12.20;;;;;;;;;;5056404;28;20044;-78
2023/07/24 06:03:38;;;;;;;13.88;11.57;;;;;;;;;;5056923;28;20439;-77
2023/07/24 06:06:04;;;;;;;16.55;12.25;;;;;;;;;;5054667;28;20045;-78
2023/07/24 06:08:31;;;;;;;14.10;12.65;;;;;;;;;;5057059;28;20368;-78
2023/07/24 06:10:57;;;;;;;13.25;11.75;;;;;;;;;;5056575;28;20405;-78
2023/07/24 06:13:23;;;;;;;13.52;12.10;;;;;;;;;;5056320;28;20124;-77
2023/07/24 06:15:49;;;;;;;13.05;11.68;;;;;;;;;;5056945;28;20052;-78
2023/07/24 06:18:15;;;;;;;14.05;12.55;;;;;;;;;;5056825;28;20064;-78
2023/07/24 06:20:41;;;;;;;13.88;11.82;;;;;;;;;;5053671;28;20055;-78
2023/07/24 06:23:07;;;;;;;13.63;12.23;;;;;;;;;;5055030;28;20079;-78
2023/07/24 06:25:33;;;;;;;13.43;10.98;;;;;;;;;;5054534;28;20399;-78
2023/07/24 06:28:00;;;;;;;12.63;11.18;;;;;;;;;;5056022;28;20053;-78
2023/07/24 06:30:26;;;;;;;12.25;10.95;;;;;;;;;;5054703;28;20041;-78
2023/07/24 06:32:52;;;;;;;12.93;11.63;;;;;;;;;;5055524;28;20037;-78
2023/07/24 06:35:18;;;;;;;12.63;11.32;;;;;;;;;;5051005;28;20037;-78
2023/07/24 06:37:45;;;;;;;12.32;11.10;;;;;;;;;;5036209;28;20053;-78
2023/07/24 06:40:11;;;;;;;12.38;10.95;;;;;;;;;;5018714;28;20061;-79
2023/07/24 06:42:37;;;;;;;12.20;10.82;;;;;;;;;;5043215;28;20421;-79
2023/07/24 06:45:04;;;;;;;12.38;11.07;;;;;;;;;;5056392;28;20119;-79
2023/07/24 06:47:30;;;;;;;12.43;10.52;;;;;;;;;;5052062;28;20131;-79
2023/07/24 06:49:57;;;;;;;11.43;9.50;;;;;;;;;;5058793;28;20080;-78
2023/07/24 06:52:23;;;;;;;11.07;9.43;;;;;;;;;;5058655;28;20124;-79
2023/07/24 06:54:49;;;;;;;10.93;8.90;;;;;;;;;;5060216;28;20045;-78
2023/07/24 06:57:15;;;;;;;11.77;9.25;;;;;;;;;;5025562;28;20048;-79
2023/07/24 06:59:41;;;;;;;11.45;9.00;;;;;;;;;;5041937;28;20098;-78
2023/07/24 07:02:07;;;;;;;10.35;8.35;;;;;;;;;;5058816;28;20041;-78
2023/07/24 07:04:33;;;;;;;9.23;8.25;;;;;;;;;;5043655;28;20045;-79
2023/07/24 07:06:59;;;;;;;11.40;9.32;;;;;;;;;;5051666;28;20046;-79
2023/07/24 07:09:25;;;;;;;10.48;8.85;;;;;;;;;;5054278;28;20103;-79
2023/07/24 07:11:52;;;;;;;10.40;8.68;;;;;;;;;;5056277;28;20499;-78
2023/07/24 07:14:18;;;;;;;10.60;8.70;;;;;;;;;;5057406;28;20049;-77
2023/07/24 07:16:44;;;;;;;11.68;8.50;;;;;;;;;;5056715;28;20446;-78
2023/07/24 07:19:10;;;;;;;10.07;8.50;;;;;;;;;;5058564;28;20550;-79
2023/07/24 07:21:37;;;;;;;11.35;10.15;;;;;;;;;;5058261;28;20045;-79
2023/07/24 07:24:03;;;;;;;10.23;9.13;;;;;;;;;;5060052;28;20075;-78
2023/07/24 07:26:29;;;;;;;12.57;9.35;;;;;;;;;;5041565;28;20049;-78
2023/07/24 07:28:55;;;;;;;12.60;10.05;;;;;;;;;;5057783;28;20045;-78
2023/07/24 07:31:22;;;;;;;11.00;8.32;;;;;;;;;;5056565;28;20103;-78
2023/07/24 07:33:48;;;;;;;13.15;9.10;;;;;;;;;;5058850;28;20348;-78
2023/07/24 07:36:14;;;;;;;11.50;8.68;;;;;;;;;;5060711;28;20051;-79
2023/07/24 07:38:40;;;;;;;11.30;7.88;;;;;;;;;;5059763;28;20371;-79
2023/07/24 07:41:06;;;;;;;10.10;7.90;;;;;;;;;;5042134;28;20099;-79
2023/07/24 07:43:34;;;;;;;10.07;7.63;;;;;;;;;;5056937;28;20074;-78
2023/07/24 07:46:00;;;;;;;12.48;7.38;;;;;;;;;;5056503;28;20057;-78
2023/07/24 07:48:26;;;;;;;10.68;7.95;;;;;;;;;;5020698;28;20068;-78
2023/07/24 07:50:52;;;;;;;12.43;7.93;;;;;;;;;;5056727;28;20037;-79
2023/07/24 07:53:18;;;;;;;11.43;7.07;;;;;;;;;;5059761;28;20530;-78
2023/07/24 07:55:44;;;;;;;9.82;7.60;;;;;;;;;;5023935;28;20045;-80
2023/07/24 07:58:10;;;;;;;13.13;7.75;;;;;;;;;;5057875;28;20053;-79
2023/07/24 08:00:39;;;;;;;10.00;7.07;;;;;;;;;;5058275;28;20051;-80
2023/07/24 08:03:05;;;;;;;10.15;7.30;;;;;;;;;;5058776;28;20123;-79
2023/07/24 08:05:32;;;;;;;11.45;7.28;;;;;;;;;;5057588;28;20431;-79
2023/07/24 08:07:58;;;;;;;9.85;6.95;;;;;;;;;;5042195;28;20048;-79
2023/07/24 08:10:24;;;;;;;12.05;7.00;;;;;;;;;;5041835;28;20048;-79
2023/07/24 08:12:50;;;;;;;10.35;6.38;;;;;;;;;;5041235;28;20044;-79
2023/07/24 08:15:16;;;;;;;10.88;7.07;;;;;;;;;;5059528;28;20387;-79
2023/07/24 08:17:42;;;;;;;9.60;6.57;;;;;;;;;;5059546;28;20100;-79
2023/07/24 08:20:08;;;;;;;10.90;6.82;;;;;;;;;;5059105;28;20049;-79
2023/07/24 08:22:34;;;;;;;10.55;6.68;;;;;;;;;;5057819;28;20041;-79
2023/07/24 08:25:00;;;;;;;10.75;6.95;;;;;;;;;;5058537;28;20508;-79
2023/07/24 08:27:26;;;;;;;9.82;6.13;;;;;;;;;;5041298;28;20051;-79
2023/07/24 08:29:53;;;;;;;11.05;6.30;;;;;;;;;;5059296;28;20510;-79
2023/07/24 08:32:19;;;;;;;9.90;6.20;;;;;;;;;;5058821;28;20057;-79
2023/07/24 08:34:45;;;;;;;12.00;6.90;;;;;;;;;;5060998;28;20076;-79
2023/07/24 08:37:12;;;;;;;9.57;6.35;;;;;;;;;;5061987;28;20053;-79
2023/07/24 08:39:38;;;;;;;13.82;6.20;;;;;;;;;;5043800;28;20037;-80
2023/07/24 08:42:14;;;;;;;13.23;6.75;;;;;;;;;;5059599;28;20041;-78
2023/07/24 08:44:40;;;;;;;10.10;6.57;;;;;;;;;;5054589;28;20065;-79
2023/07/24 08:47:09;;;;;;;10.75;6.07;;;;;;;;;;5054129;28;20052;-78
2023/07/24 08:49:36;;;;;;;11.82;6.45;;;;;;;;;;5054439;28;20355;-78
2023/07/24 08:52:04;;;;;;;10.07;6.38;;;;;;;;;;5054737;28;20080;-78
2023/07/24 08:54:31;;;;;;;10.75;5.63;;;;;;;;;;5055344;28;20057;-79
2023/07/24 08:56:57;;;;;;;9.13;5.47;;;;;;;;;;5038407;28;20053;-78
2023/07/24 08:59:23;;;;;;;10.63;5.60;;;;;;;;;;5056341;28;20049;-78
2023/07/24 09:01:49;;;;;;;9.32;6.10;;;;;;;;;;5059159;28;20076;-78
2023/07/24 09:04:15;;;;;;;10.63;5.40;;;;;;;;;;5062127;28;20041;-79
2023/07/24 09:06:41;;;;;;;9.30;5.57;;;;;;;;;;5046677;28;20128;-78
2023/07/24 09:09:14;;;;;;;8.00;5.15;;;;;;;;;;5045017;28;20049;-78
2023/07/24 09:11:50;;;;;;;11.55;5.38;;;;;;;;;;5067359;28;20056;-79
2023/07/24 09:14:26;;;;;;;9.02;5.15;;;;;;;;;;5067471;28;20056;-79
2023/07/24 09:17:11;;;;;;;11.35;5.57;;;;;;;;;;5062248;28;20045;-79
2023/07/24 09:19:38;;;;;;;10.73;4.93;;;;;;;;;;5063186;28;20051;-79
2023/07/24 09:22:09;;;;;;;8.98;5.78;;;;;;;;;;5067721;28;20045;-79
2023/07/24 09:24:35;;;;;;;9.38;5.43;;;;;;;;;;5066707;28;20088;-79
2023/07/24 09:27:05;;;;;;;10.27;5.70;;;;;;;;;;5066193;28;20045;-78
2023/07/24 09:29:31;;;;;;;12.02;6.18;;;;;;;;;;5049212;28;20044;-78
2023/07/24 09:31:57;;;;;;;12.07;6.43;;;;;;;;;;5067771;28;20087;-79
2023/07/24 09:34:25;;;;;;;10.35;6.55;;;;;;;;;;5060479;28;20093;-78
2023/07/24 09:36:51;;;;;;;10.40;5.55;;;;;;;;;;5061618;28;20109;-79
2023/07/24 09:39:23;;;;;;;10.68;5.82;;;;;;;;;;5043854;28;20037;-78
2023/07/24 09:41:50;;;;;;;9.32;5.28;;;;;;;;;;5063167;28;20053;-79
2023/07/24 09:44:16;;;;;;;10.70;6.30;;;;;;;;;;5061093;28;20075;-79
2023/07/24 09:46:43;;;;;;;10.27;6.05;;;;;;;;;;5061985;28;20110;-79
2023/07/24 09:49:10;;;;;;;10.02;5.63;;;;;;;;;;5060727;28;20124;-79
2023/07/24 09:51:36;;;;;;;10.15;5.57;;;;;;;;;;5042446;28;20454;-79
2023/07/24 09:54:11;;;;;;;9.80;5.70;;;;;;;;;;5066633;28;20052;-79
2023/07/24 09:56:37;;;;;;;12.13;6.03;;;;;;;;;;5050294;28;20043;-79
2023/07/24 09:59:04;;;;;;;10.82;5.78;;;;;;;;;;5067925;28;20059;-80
2023/07/24 10:01:32;;;;;;;10.27;6.25;;;;;;;;;;5066577;28;20068;-78
2023/07/24 10:03:59;;;;;;;9.25;5.72;;;;;;;;;;5057146;28;20119;-78
2023/07/24 10:06:27;;;;;;;9.38;5.97;;;;;;;;;;5040099;28;20072;-79
2023/07/24 10:08:53;;;;;;;11.05;5.50;;;;;;;;;;5023440;28;20049;-79
2023/07/24 10:11:19;;;;;;;9.63;5.53;;;;;;;;;;5041739;28;20425;-78
2023/07/24 10:13:46;;;;;;;12.52;6.07;;;;;;;;;;5040551;28;20103;-78
2023/07/24 10:16:12;;;;;;;9.20;5.60;;;;;;;;;;5039667;28;20114;-78
2023/07/24 10:18:45;;;;;;;12.25;6.20;;;;;;;;;;5039419;28;20447;-79
2023/07/24 10:21:11;;;;;;;11.18;6.15;;;;;;;;;;5060730;28;20048;-78
2023/07/24 10:23:40;;;;;;;9.40;5.90;;;;;;;;;;5060400;28;20482;-78
2023/07/24 10:26:07;;;;;;;10.38;5.93;;;;;;;;;;5060206;28;20053;-78
2023/07/24 10:28:40;;;;;;;9.95;5.78;;;;;;;;;;5062053;28;20109;-79
2023/07/24 10:31:28;;;;;;;9.80;5.60;;;;;;;;;;5060000;28;20136;-78
2023/07/24 10:33:54;;;;;;;7.90;5.30;;;;;;;;;;5040666;28;20065;-79
2023/07/24 10:36:22;;;;;;;9.30;4.50;;;;;;;;;;5023115;28;20152;-78
2023/07/24 10:38:53;;;;;;;7.45;4.32;;;;;;;;;;5022149;28;20050;-78
2023/07/24 10:41:19;;;;;;;9.85;4.38;;;;;;;;;;5039582;28;20041;-79
2023/07/24 10:43:48;;;;;;;9.80;4.35;;;;;;;;;;5039562;28;20503;-79
2023/07/24 10:46:15;;;;;;;9.55;4.72;;;;;;;;;;5040744;28;20060;-79
2023/07/24 10:48:45;;;;;;;10.43;4.60;;;;;;;;;;5027838;28;20101;-78
2023/07/24 10:51:15;;;;;;;10.73;4.70;;;;;;;;;;5058925;28;20045;-79
2023/07/24 10:53:48;;;;;;;10.10;5.10;;;;;;;;;;5059920;28;20048;-79
2023/07/24 10:56:14;;;;;;;10.93;4.88;;;;;;;;;;5060226;28;20053;-79
2023/07/24 10:58:40;;;;;;;11.90;4.90;;;;;;;;;;5060553;28;20045;-79
2023/07/24 11:01:07;;;;;;;9.52;4.80;;;;;;;;;;5058701;28;20041;-78
2023/07/24 11:03:36;;;;;;;8.00;4.70;;;;;;;;;;5058348;28;20344;-79
2023/07/24 11:06:02;;;;;;;10.10;4.88;;;;;;;;;;5063151;28;20037;-79
2023/07/24 11:08:28;;;;;;;8.20;4.55;;;;;;;;;;5064936;28;20041;-78
2023/07/24 11:10:56;;;;;;;9.52;4.72;;;;;;;;;;5063798;28;20124;-79
2023/07/24 11:13:27;;;;;;;9.25;4.68;;;;;;;;;;5064874;28;20108;-80
2023/07/24 11:15:53;;;;;;;9.10;4.43;;;;;;;;;;5064368;28;20113;-79
2023/07/24 11:18:26;;;;;;;8.60;4.43;;;;;;;;;;5045695;28;20044;-79
2023/07/24 11:20:56;;;;;;;10.88;4.38;;;;;;;;;;5063859;28;20052;-79
2023/07/24 11:23:22;;;;;;;8.70;4.78;;;;;;;;;;5047125;28;20068;-79
2023/07/24 11:25:52;;;;;;;9.60;5.00;;;;;;;;;;5066429;28;20549;-79
2023/07/24 11:28:18;;;;;;;9.50;4.53;;;;;;;;;;5064341;28;20056;-79
2023/07/24 11:30:44;;;;;;;7.85;4.78;;;;;;;;;;5064496;28;20052;-79
2023/07/24 11:33:15;;;;;;;9.88;4.75;;;;;;;;;;5042267;28;20044;-78
2023/07/24 11:35:41;;;;;;;10.57;4.72;;;;;;;;;;5041898;28;20045;-78
2023/07/24 11:38:10;;;;;;;11.38;5.45;;;;;;;;;;5060964;28;20100;-79
2023/07/24 11:40:38;;;;;;;8.75;4.95;;;;;;;;;;5060023;28;20060;-79
2023/07/24 11:43:04;;;;;;;10.65;5.25;;;;;;;;;;5044668;28;20094;-79
2023/07/24 11:45:31;;;;;;;8.90;4.78;;;;;;;;;;5042986;28;20195;-79
2023/07/24 11:47:57;;;;;;;12.25;5.05;;;;;;;;;;5060074;28;20045;-79
2023/07/24 11:50:24;;;;;;;9.65;4.40;;;;;;;;;;5064646;28;20057;-80
2023/07/24 11:52:53;;;;;;;10.07;4.82;;;;;;;;;;5063443;28;20060;-79
2023/07/24 11:55:39;;;;;;;9.50;3.90;;;;;;;;;;5063117;28;20053;-79
2023/07/24 11:58:05;;;;;;;9.88;4.90;;;;;;;;;;5059815;28;20059;-79
2023/07/24 12:00:34;;;;;;;7.40;4.13;;;;;;;;;;5049448;28;20144;-78
2023/07/24 12:03:00;;;;;;;10.77;4.53;;;;;;;;;;5041562;28;20079;-79
2023/07/24 12:05:27;;;;;;;8.10;4.82;;;;;;;;;;5062036;28;20461;-79
2023/07/24 12:07:54;;;;;;;7.47;4.35;;;;;;;;;;5062715;28;20174;-80
2023/07/24 12:10:27;;;;;;;8.25;4.47;;;;;;;;;;5064105;28;20041;-80
2023/07/24 12:12:53;;;;;;;10.00;4.40;;;;;;;;;;5062064;28;20060;-79
2023/07/24 12:15:19;;;;;;;9.80;5.10;;;;;;;;;;5061485;28;20132;-79
2023/07/24 12:17:45;;;;;;;7.90;4.45;;;;;;;;;;5063361;28;20041;-79
2023/07/24 12:20:12;;;;;;;11.45;5.20;;;;;;;;;;5062371;28;20131;-80
2023/07/24 12:22:39;;;;;;;7.30;3.92;;;;;;;;;;5062257;28;20071;-79
2023/07/24 12:25:05;;;;;;;9.88;4.95;;;;;;;;;;5062552;28;20037;-79
2023/07/24 12:27:32;;;;;;;8.23;5.25;;;;;;;;;;5062503;28;20056;-79
2023/07/24 12:29:58;;;;;;;9.70;5.45;;;;;;;;;;5043016;28;20063;-79
2023/07/24 12:32:24;;;;;;;9.95;5.38;;;;;;;;;;5062156;28;20079;-79
2023/07/24 12:34:51;;;;;;;9.13;5.47;;;;;;;;;;5062480;28;20052;-79
2023/07/24 12:37:18;;;;;;;11.52;5.65;;;;;;;;;;5062413;28;20584;-80
2023/07/24 12:39:47;;;;;;;9.40;5.20;;;;;;;;;;5064750;28;20052;-80
2023/07/24 12:42:14;;;;;;;10.25;5.50;;;;;;;;;;5064512;28;20049;-79
2023/07/24 12:44:40;;;;;;;10.38;4.90;;;;;;;;;;5064461;28;20059;-81
2023/07/24 12:47:06;;;;;;;13.93;5.10;;;;;;;;;;5060478;28;20106;-79
2023/07/24 12:49:32;;;;;;;9.95;4.80;;;;;;;;;;5050972;28;20048;-79
2023/07/24 12:51:58;;;;;;;10.70;5.13;;;;;;;;;;5042486;28;20272;-79
2023/07/24 12:54:24;;;;;;;8.50;4.45;;;;;;;;;;5062921;28;20052;-79
2023/07/24 12:56:51;;;;;;;9.80;4.40;;;;;;;;;;5064182;28;20045;-80
2023/07/24 12:59:20;;;;;;;8.63;4.32;;;;;;;;;;5063747;28;20049;-81
2023/07/24 13:01:46;;;;;;;8.48;4.60;;;;;;;;;;5062056;28;20053;-79
2023/07/24 13:04:13;;;;;;;8.57;4.47;;;;;;;;;;5062742;28;20127;-80
2023/07/24 13:06:39;;;;;;;11.00;5.28;;;;;;;;;;5043156;28;20059;-80
2023/07/24 13:09:05;;;;;;;10.45;5.32;;;;;;;;;;5061083;28;20179;-79
2023/07/24 13:11:31;;;;;;;24.77;9.93;;;;;;;;;;5061818;28;20037;-80
2023/07/24 13:13:58;;;;;;;8.93;5.05;;;;;;;;;;5058981;28;20123;-81
2023/07/24 13:16:24;;;;;;;9.85;4.78;;;;;;;;;;5060089;28;20070;-80
2023/07/24 13:18:50;;;;;;;9.40;4.78;;;;;;;;;;5063488;28;20506;-80
2023/07/24 13:21:16;;;;;;;10.57;4.50;;;;;;;;;;5043981;28;20071;-78
2023/07/24 13:23:42;;;;;;;8.32;4.20;;;;;;;;;;5062095;28;20102;-79
2023/07/24 13:26:10;;;;;;;12.85;4.88;;;;;;;;;;5064112;28;20131;-80
2023/07/24 13:28:37;;;;;;;10.85;5.10;;;;;;;;;;5028976;28;20037;-79
2023/07/24 13:31:24;;;;;;;9.23;5.13;;;;;;;;;;5063398;28;20074;-80
2023/07/24 13:33:50;;;;;;;10.82;5.00;;;;;;;;;;5054905;28;20053;-80
2023/07/24 13:36:16;;;;;;;9.80;5.05;;;;;;;;;;5064123;28;20041;-80
2023/07/24 13:38:43;;;;;;;8.80;4.80;;;;;;;;;;5063622;28;20037;-79
2023/07/24 13:41:09;;;;;;;9.57;4.95;;;;;;;;;;5063775;28;20513;-79
2023/07/24 13:43:35;;;;;;;9.15;5.30;;;;;;;;;;5063628;28;20044;-80
2023/07/24 13:46:04;;;;;;;10.95;5.70;;;;;;;;;;5054136;28;20061;-80
2023/07/24 13:48:31;;;;;;;13.93;5.32;;;;;;;;;;5046808;28;20049;-80
2023/07/24 13:50:57;;;;;;;9.00;4.47;;;;;;;;;;5047936;28;20047;-80
2023/07/24 13:53:24;;;;;;;9.18;4.45;;;;;;;;;;5059695;28;20041;-80
2023/07/24 13:55:50;;;;;;;8.48;4.50;;;;;;;;;;5065612;28;20048;-82
2023/07/24 13:58:16;;;;;;;8.50;4.78;;;;;;;;;;5056383;28;20057;-80
2023/07/24 14:00:42;;;;;;;8.82;4.70;;;;;;;;;;5047928;28;20547;-80
2023/07/24 14:03:08;;;;;;;8.80;4.72;;;;;;;;;;5048474;28;20071;-80
2023/07/24 14:05:38;;;;;;;9.10;6.13;;;;;;;;;;5047331;28;20109;-80
2023/07/24 14:08:04;;;;;;;9.52;5.43;;;;;;;;;;5047277;28;20095;-80
2023/07/24 14:10:30;;;;;;;10.20;5.47;;;;;;;;;;5048276;28;20049;-80
2023/07/24 14:12:57;;;;;;;12.30;6.70;;;;;;;;;;5064929;28;20049;-79
2023/07/24 14:15:23;;;;;;;10.02;5.82;;;;;;;;;;5068774;28;20076;-80
2023/07/24 14:17:49;;;;;;;10.07;6.13;;;;;;;;;;5051560;28;20041;-80
2023/07/24 14:20:15;;;;;;;9.57;6.20;;;;;;;;;;5068333;28;20041;-80
2023/07/24 14:22:42;;;;;;;8.77;6.60;;;;;;;;;;5069124;28;20045;-80
2023/07/24 14:25:08;;;;;;;10.88;6.88;;;;;;;;;;5051302;28;20068;-80
2023/07/24 14:27:34;;;;;;;11.20;7.47;;;;;;;;;;5050785;28;20053;-80